sensor_id;sensor_type;location;lat;lon;timestamp;pressure;altitude;pressure_sealevel;temperature;humidity
70921;BME280;58572;48.110;19.838;2023-11-22T00:00:37;97549.56;;;5.95;72.02
70921;BME280;58572;48.110;19.838;2023-11-22T00:03:04;97550.69;;;5.99;71.38
70921;BME280;58572;48.110;19.838;2023-11-22T00:05:32;97559.69;;;5.77;71.52
70921;BME280;58572;48.110;19.838;2023-11-22T00:07:59;97554.25;;;5.03;73.14
70921;BME280;58572;48.110;19.838;2023-11-22T00:10:26;97556.47;;;5.38;73.46
70921;BME280;58572;48.110;19.838;2023-11-22T00:12:53;97562.88;;;5.69;72.41
70921;BME280;58572;48.110;19.838;2023-11-22T00:15:21;97564.50;;;5.70;72.07
70921;BME280;58572;48.110;19.838;2023-11-22T00:17:48;97565.94;;;5.46;72.97
70921;BME280;58572;48.110;19.838;2023-11-22T00:20:15;97560.69;;;5.66;72.23
70921;BME280;58572;48.110;19.838;2023-11-22T00:22:44;97566.69;;;5.73;72.18
70921;BME280;58572;48.110;19.838;2023-11-22T00:25:12;97573.47;;;5.81;71.92
70921;BME280;58572;48.110;19.838;2023-11-22T00:27:40;97572.91;;;5.79;71.42
70921;BME280;58572;48.110;19.838;2023-11-22T00:30:08;97580.06;;;5.58;72.29
70921;BME280;58572;48.110;19.838;2023-11-22T00:32:35;97576.03;;;3.49;73.34
70921;BME280;58572;48.110;19.838;2023-11-22T00:35:03;97567.88;;;4.65;75.53
70921;BME280;58572;48.110;19.838;2023-11-22T00:37:30;97571.34;;;5.46;72.84
70921;BME280;58572;48.110;19.838;2023-11-22T00:39:59;97559.03;;;5.60;71.66
70921;BME280;58572;48.110;19.838;2023-11-22T00:42:26;97562.00;;;5.59;72.36
70921;BME280;58572;48.110;19.838;2023-11-22T00:44:53;97557.94;;;5.56;72.09
70921;BME280;58572;48.110;19.838;2023-11-22T00:47:21;97565.91;;;5.78;71.22
70921;BME280;58572;48.110;19.838;2023-11-22T00:49:48;97572.94;;;5.42;72.51
70921;BME280;58572;48.110;19.838;2023-11-22T00:52:15;97562.41;;;5.83;71.12
70921;BME280;58572;48.110;19.838;2023-11-22T00:54:42;97563.69;;;5.70;71.34
70921;BME280;58572;48.110;19.838;2023-11-22T00:57:11;97573.75;;;5.85;70.98
70921;BME280;58572;48.110;19.838;2023-11-22T00:59:38;97569.31;;;5.63;70.89
70921;BME280;58572;48.110;19.838;2023-11-22T01:02:05;97574.22;;;5.71;71.20
70921;BME280;58572;48.110;19.838;2023-11-22T01:04:34;97568.16;;;5.54;71.05
70921;BME280;58572;48.110;19.838;2023-11-22T01:07:02;97562.22;;;5.52;71.59
70921;BME280;58572;48.110;19.838;2023-11-22T01:09:30;97554.47;;;5.61;70.95
70921;BME280;58572;48.110;19.838;2023-11-22T01:11:58;97552.63;;;5.66;71.06
70921;BME280;58572;48.110;19.838;2023-11-22T01:14:26;97553.06;;;5.53;71.54
70921;BME280;58572;48.110;19.838;2023-11-22T01:16:54;97545.84;;;5.64;71.36
70921;BME280;58572;48.110;19.838;2023-11-22T01:19:21;97550.75;;;5.72;70.68
70921;BME280;58572;48.110;19.838;2023-11-22T01:21:48;97559.06;;;5.65;71.09
70921;BME280;58572;48.110;19.838;2023-11-22T01:24:15;97553.34;;;5.57;71.35
70921;BME280;58572;48.110;19.838;2023-11-22T01:26:42;97560.63;;;5.56;71.03
70921;BME280;58572;48.110;19.838;2023-11-22T01:29:09;97554.50;;;5.29;72.27
70921;BME280;58572;48.110;19.838;2023-11-22T01:31:38;97557.75;;;5.31;72.12
70921;BME280;58572;48.110;19.838;2023-11-22T01:34:07;97561.13;;;5.48;71.37
70921;BME280;58572;48.110;19.838;2023-11-22T01:36:34;97571.38;;;5.51;71.25
70921;BME280;58572;48.110;19.838;2023-11-22T01:39:02;97572.72;;;5.49;71.36
70921;BME280;58572;48.110;19.838;2023-11-22T01:41:29;97567.63;;;5.52;71.13
70921;BME280;58572;48.110;19.838;2023-11-22T01:43:56;97564.84;;;5.42;71.31
70921;BME280;58572;48.110;19.838;2023-11-22T01:46:24;97572.66;;;5.11;72.16
70921;BME280;58572;48.110;19.838;2023-11-22T01:48:53;97568.38;;;5.16;72.15
70921;BME280;58572;48.110;19.838;2023-11-22T01:51:21;97573.44;;;5.39;71.30
70921;BME280;58572;48.110;19.838;2023-11-22T01:53:51;97584.31;;;5.49;71.27
70921;BME280;58572;48.110;19.838;2023-11-22T01:56:20;97583.75;;;5.47;70.82
70921;BME280;58572;48.110;19.838;2023-11-22T01:58:48;97576.19;;;5.44;71.32
70921;BME280;58572;48.110;19.838;2023-11-22T02:01:16;97574.00;;;5.41;71.00
70921;BME280;58572;48.110;19.838;2023-11-22T02:03:45;97584.81;;;5.46;70.79
70921;BME280;58572;48.110;19.838;2023-11-22T02:06:15;97590.69;;;5.38;70.94
70921;BME280;58572;48.110;19.838;2023-11-22T02:08:43;97591.19;;;5.35;71.23
70921;BME280;58572;48.110;19.838;2023-11-22T02:11:10;97590.50;;;5.50;70.56
70921;BME280;58572;48.110;19.838;2023-11-22T02:13:37;97610.66;;;5.42;70.82
70921;BME280;58572;48.110;19.838;2023-11-22T02:16:05;97614.53;;;4.97;72.53
70921;BME280;58572;48.110;19.838;2023-11-22T02:18:32;97619.81;;;4.87;72.70
70921;BME280;58572;48.110;19.838;2023-11-22T02:21:00;97619.72;;;4.77;73.29
70921;BME280;58572;48.110;19.838;2023-11-22T02:23:28;97622.34;;;4.72;73.12
70921;BME280;58572;48.110;19.838;2023-11-22T02:25:56;97621.94;;;4.85;72.78
70921;BME280;58572;48.110;19.838;2023-11-22T02:28:24;97627.13;;;4.92;72.81
70921;BME280;58572;48.110;19.838;2023-11-22T02:30:51;97624.19;;;4.93;72.37
70921;BME280;58572;48.110;19.838;2023-11-22T02:33:20;97624.34;;;4.81;72.55
70921;BME280;58572;48.110;19.838;2023-11-22T02:35:47;97614.84;;;4.74;73.09
70921;BME280;58572;48.110;19.838;2023-11-22T02:38:15;97623.88;;;4.90;72.53
70921;BME280;58572;48.110;19.838;2023-11-22T02:40:45;97627.41;;;4.90;72.44
70921;BME280;58572;48.110;19.838;2023-11-22T02:43:12;97626.44;;;5.01;72.11
70921;BME280;58572;48.110;19.838;2023-11-22T02:45:39;97629.13;;;5.01;72.10
70921;BME280;58572;48.110;19.838;2023-11-22T02:48:06;97633.09;;;4.94;72.05
70921;BME280;58572;48.110;19.838;2023-11-22T02:50:35;97626.88;;;4.93;72.42
70921;BME280;58572;48.110;19.838;2023-11-22T02:53:02;97641.47;;;4.97;72.17
70921;BME280;58572;48.110;19.838;2023-11-22T02:55:30;97640.72;;;5.02;71.95
70921;BME280;58572;48.110;19.838;2023-11-22T02:57:58;97639.03;;;4.96;72.36
70921;BME280;58572;48.110;19.838;2023-11-22T03:00:26;97650.31;;;4.93;72.40
70921;BME280;58572;48.110;19.838;2023-11-22T03:02:55;97634.25;;;4.76;72.29
70921;BME280;58572;48.110;19.838;2023-11-22T03:05:22;97651.63;;;4.90;72.09
70921;BME280;58572;48.110;19.838;2023-11-22T03:07:49;97599.00;;;4.56;72.54
70921;BME280;58572;48.110;19.838;2023-11-22T03:10:17;97656.22;;;4.90;72.49
70921;BME280;58572;48.110;19.838;2023-11-22T03:12:44;97655.19;;;4.96;72.24
70921;BME280;58572;48.110;19.838;2023-11-22T03:15:12;97652.66;;;4.84;72.55
70921;BME280;58572;48.110;19.838;2023-11-22T03:17:40;97651.56;;;4.85;72.36
70921;BME280;58572;48.110;19.838;2023-11-22T03:20:07;97648.38;;;4.88;72.28
70921;BME280;58572;48.110;19.838;2023-11-22T03:22:37;97652.66;;;4.84;72.39
70921;BME280;58572;48.110;19.838;2023-11-22T03:25:05;97630.81;;;4.59;72.60
70921;BME280;58572;48.110;19.838;2023-11-22T03:27:35;97639.00;;;4.69;72.23
70921;BME280;58572;48.110;19.838;2023-11-22T03:30:03;97656.03;;;4.74;72.61
70921;BME280;58572;48.110;19.838;2023-11-22T03:32:31;97660.09;;;4.99;71.71
70921;BME280;58572;48.110;19.838;2023-11-22T03:35:02;97654.72;;;4.55;73.04
70921;BME280;58572;48.110;19.838;2023-11-22T03:37:30;97667.00;;;4.68;72.70
70921;BME280;58572;48.110;19.838;2023-11-22T03:39:57;97672.38;;;4.68;72.74
70921;BME280;58572;48.110;19.838;2023-11-22T03:42:25;97663.28;;;4.74;72.49
70921;BME280;58572;48.110;19.838;2023-11-22T03:44:52;97660.47;;;4.64;72.43
70921;BME280;58572;48.110;19.838;2023-11-22T03:47:19;97673.44;;;4.67;72.76
70921;BME280;58572;48.110;19.838;2023-11-22T03:49:48;97675.56;;;4.65;72.93
70921;BME280;58572;48.110;19.838;2023-11-22T03:52:15;97679.47;;;4.74;72.26
70921;BME280;58572;48.110;19.838;2023-11-22T03:54:42;97654.41;;;4.52;72.42
70921;BME280;58572;48.110;19.838;2023-11-22T03:57:09;97696.44;;;4.74;72.18
70921;BME280;58572;48.110;19.838;2023-11-22T03:59:36;97694.78;;;4.73;72.36
70921;BME280;58572;48.110;19.838;2023-11-22T04:02:04;97696.47;;;4.58;72.54
70921;BME280;58572;48.110;19.838;2023-11-22T04:04:32;97698.84;;;4.54;72.76
70921;BME280;58572;48.110;19.838;2023-11-22T04:07:01;97701.47;;;5.14;70.40
70921;BME280;58572;48.110;19.838;2023-11-22T04:09:28;97686.28;;;4.81;71.68
70921;BME280;58572;48.110;19.838;2023-11-22T04:11:56;97693.66;;;4.91;71.70
70921;BME280;58572;48.110;19.838;2023-11-22T04:14:23;97705.28;;;3.98;74.50
70921;BME280;58572;48.110;19.838;2023-11-22T04:16:52;97713.25;;;4.65;72.36
70921;BME280;58572;48.110;19.838;2023-11-22T04:19:19;97712.72;;;4.85;71.93
70921;BME280;58572;48.110;19.838;2023-11-22T04:21:46;97728.75;;;4.02;73.88
70921;BME280;58572;48.110;19.838;2023-11-22T04:24:15;97727.34;;;4.72;71.85
70921;BME280;58572;48.110;19.838;2023-11-22T04:26:43;97731.44;;;4.02;74.09
70921;BME280;58572;48.110;19.838;2023-11-22T04:29:11;97720.69;;;3.69;74.26
70921;BME280;58572;48.110;19.838;2023-11-22T04:31:38;97747.34;;;1.91;81.69
70921;BME280;58572;48.110;19.838;2023-11-22T04:34:05;97731.53;;;4.24;74.36
70921;BME280;58572;48.110;19.838;2023-11-22T04:36:32;97728.03;;;4.62;72.79
70921;BME280;58572;48.110;19.838;2023-11-22T04:38:59;97731.72;;;4.56;72.46
70921;BME280;58572;48.110;19.838;2023-11-22T04:41:28;97738.38;;;4.70;72.40
70921;BME280;58572;48.110;19.838;2023-11-22T04:43:55;97736.44;;;4.88;69.63
70921;BME280;58572;48.110;19.838;2023-11-22T04:46:22;97751.34;;;4.73;71.72
70921;BME280;58572;48.110;19.838;2023-11-22T04:48:49;97747.94;;;4.61;72.01
70921;BME280;58572;48.110;19.838;2023-11-22T04:51:17;97754.31;;;4.55;72.70
70921;BME280;58572;48.110;19.838;2023-11-22T04:53:44;97749.91;;;4.66;72.04
70921;BME280;58572;48.110;19.838;2023-11-22T04:56:11;97742.44;;;4.73;71.60
70921;BME280;58572;48.110;19.838;2023-11-22T04:58:40;97746.72;;;4.69;72.12
70921;BME280;58572;48.110;19.838;2023-11-22T05:01:07;97754.22;;;4.67;72.19
70921;BME280;58572;48.110;19.838;2023-11-22T05:03:36;97757.44;;;4.86;69.23
70921;BME280;58572;48.110;19.838;2023-11-22T05:06:03;97759.69;;;4.16;73.40
70921;BME280;58572;48.110;19.838;2023-11-22T05:08:30;97755.63;;;4.53;72.06
70921;BME280;58572;48.110;19.838;2023-11-22T05:10:58;97765.66;;;4.57;72.08
70921;BME280;58572;48.110;19.838;2023-11-22T05:13:25;97765.06;;;4.72;72.10
70921;BME280;58572;48.110;19.838;2023-11-22T05:15:53;97766.84;;;4.28;72.77
70921;BME280;58572;48.110;19.838;2023-11-22T05:18:21;97772.91;;;4.57;72.28
70921;BME280;58572;48.110;19.838;2023-11-22T05:20:48;97784.44;;;4.52;72.11
70921;BME280;58572;48.110;19.838;2023-11-22T05:23:15;97782.13;;;4.61;72.46
70921;BME280;58572;48.110;19.838;2023-11-22T05:25:42;97787.22;;;4.40;72.20
70921;BME280;58572;48.110;19.838;2023-11-22T05:28:09;97788.53;;;4.21;73.11
70921;BME280;58572;48.110;19.838;2023-11-22T05:30:36;97791.69;;;3.56;73.29
70921;BME280;58572;48.110;19.838;2023-11-22T05:33:05;97793.38;;;3.91;73.99
70921;BME280;58572;48.110;19.838;2023-11-22T05:35:32;97803.94;;;4.26;73.04
70921;BME280;58572;48.110;19.838;2023-11-22T05:38:00;97800.75;;;4.45;71.50
70921;BME280;58572;48.110;19.838;2023-11-22T05:40:27;97809.28;;;4.09;73.06
70921;BME280;58572;48.110;19.838;2023-11-22T05:42:54;97803.84;;;4.37;72.37
70921;BME280;58572;48.110;19.838;2023-11-22T05:45:22;97806.78;;;4.53;71.88
70921;BME280;58572;48.110;19.838;2023-11-22T05:47:49;97809.22;;;4.54;71.69
70921;BME280;58572;48.110;19.838;2023-11-22T05:50:17;97809.34;;;3.97;72.95
70921;BME280;58572;48.110;19.838;2023-11-22T05:52:45;97792.97;;;3.99;73.07
70921;BME280;58572;48.110;19.838;2023-11-22T05:55:12;97808.66;;;3.73;73.77
70921;BME280;58572;48.110;19.838;2023-11-22T05:57:39;97812.91;;;4.31;72.71
70921;BME280;58572;48.110;19.838;2023-11-22T06:00:07;97803.03;;;4.54;71.72
70921;BME280;58572;48.110;19.838;2023-11-22T06:02:35;97810.78;;;4.50;71.69
70921;BME280;58572;48.110;19.838;2023-11-22T06:05:03;97814.09;;;4.07;72.70
70921;BME280;58572;48.110;19.838;2023-11-22T06:07:32;97831.25;;;4.51;71.37
70921;BME280;58572;48.110;19.838;2023-11-22T06:09:59;97841.56;;;4.09;72.32
70921;BME280;58572;48.110;19.838;2023-11-22T06:12:27;97845.22;;;4.03;73.09
70921;BME280;58572;48.110;19.838;2023-11-22T06:14:54;97849.19;;;3.83;73.03
70921;BME280;58572;48.110;19.838;2023-11-22T06:17:21;97855.56;;;4.39;72.43
70921;BME280;58572;48.110;19.838;2023-11-22T06:19:48;97856.88;;;4.37;71.92
70921;BME280;58572;48.110;19.838;2023-11-22T06:22:15;97868.03;;;4.00;73.11
70921;BME280;58572;48.110;19.838;2023-11-22T06:24:44;97851.47;;;4.20;72.36
70921;BME280;58572;48.110;19.838;2023-11-22T06:27:13;97877.41;;;4.26;72.18
70921;BME280;58572;48.110;19.838;2023-11-22T06:29:40;97882.09;;;3.34;74.79
70921;BME280;58572;48.110;19.838;2023-11-22T06:32:09;97873.81;;;2.53;76.98
70921;BME280;58572;48.110;19.838;2023-11-22T06:34:37;97872.06;;;2.94;77.58
70921;BME280;58572;48.110;19.838;2023-11-22T06:37:04;97802.16;;;3.41;74.25
70921;BME280;58572;48.110;19.838;2023-11-22T06:39:34;97886.22;;;1.83;77.82
70921;BME280;58572;48.110;19.838;2023-11-22T06:42:04;97886.31;;;2.06;79.63
70921;BME280;58572;48.110;19.838;2023-11-22T06:44:32;97885.97;;;2.68;82.05
70921;BME280;58572;48.110;19.838;2023-11-22T06:47:00;97883.59;;;3.41;78.49
70921;BME280;58572;48.110;19.838;2023-11-22T06:49:27;97888.25;;;3.46;82.49
70921;BME280;58572;48.110;19.838;2023-11-22T06:51:54;97892.16;;;3.15;83.86
70921;BME280;58572;48.110;19.838;2023-11-22T06:54:21;97897.50;;;4.52;76.02
70921;BME280;58572;48.110;19.838;2023-11-22T06:56:48;97893.06;;;3.32;81.58
70921;BME280;58572;48.110;19.838;2023-11-22T06:59:18;97908.00;;;4.54;74.32
70921;BME280;58572;48.110;19.838;2023-11-22T07:01:45;97908.41;;;3.60;81.82
70921;BME280;58572;48.110;19.838;2023-11-22T07:04:12;97907.66;;;4.05;80.69
70921;BME280;58572;48.110;19.838;2023-11-22T07:06:40;97913.66;;;3.95;82.57
70921;BME280;58572;48.110;19.838;2023-11-22T07:09:08;97911.84;;;3.84;82.97
70921;BME280;58572;48.110;19.838;2023-11-22T07:11:36;97917.28;;;4.29;80.27
70921;BME280;58572;48.110;19.838;2023-11-22T07:14:04;97924.75;;;4.89;79.50
70921;BME280;58572;48.110;19.838;2023-11-22T07:16:33;97934.31;;;4.18;80.88
70921;BME280;58572;48.110;19.838;2023-11-22T07:19:00;97928.19;;;4.23;83.14
70921;BME280;58572;48.110;19.838;2023-11-22T07:21:28;97943.22;;;4.07;82.46
70921;BME280;58572;48.110;19.838;2023-11-22T07:23:56;97941.91;;;4.21;82.21
70921;BME280;58572;48.110;19.838;2023-11-22T07:26:24;97942.38;;;4.63;81.97
70921;BME280;58572;48.110;19.838;2023-11-22T07:28:52;97915.41;;;5.13;77.14
70921;BME280;58572;48.110;19.838;2023-11-22T07:31:20;97938.59;;;4.47;82.17
70921;BME280;58572;48.110;19.838;2023-11-22T07:33:49;97937.13;;;5.24;76.24
70921;BME280;58572;48.110;19.838;2023-11-22T07:36:17;97939.16;;;4.33;81.49
70921;BME280;58572;48.110;19.838;2023-11-22T07:38:46;97929.06;;;4.73;80.28
70921;BME280;58572;48.110;19.838;2023-11-22T07:41:13;97936.25;;;4.68;80.80
70921;BME280;58572;48.110;19.838;2023-11-22T07:43:41;97940.72;;;4.62;78.97
70921;BME280;58572;48.110;19.838;2023-11-22T07:46:08;97936.88;;;4.41;82.50
70921;BME280;58572;48.110;19.838;2023-11-22T07:48:38;97940.56;;;4.69;81.26
70921;BME280;58572;48.110;19.838;2023-11-22T07:51:08;97944.94;;;4.41;82.52
70921;BME280;58572;48.110;19.838;2023-11-22T07:53:35;97933.38;;;5.25;77.18
70921;BME280;58572;48.110;19.838;2023-11-22T07:56:02;97938.78;;;5.25;77.89
70921;BME280;58572;48.110;19.838;2023-11-22T07:58:30;97932.56;;;5.07;78.88
70921;BME280;58572;48.110;19.838;2023-11-22T08:00:58;97943.66;;;5.11;77.93
70921;BME280;58572;48.110;19.838;2023-11-22T08:03:25;97953.69;;;4.48;82.58
70921;BME280;58572;48.110;19.838;2023-11-22T08:05:52;97959.66;;;4.51;80.85
70921;BME280;58572;48.110;19.838;2023-11-22T08:08:23;97961.13;;;5.08;79.78
70921;BME280;58572;48.110;19.838;2023-11-22T08:10:51;97956.25;;;5.22;78.41
70921;BME280;58572;48.110;19.838;2023-11-22T08:13:20;97981.78;;;4.24;83.86
70921;BME280;58572;48.110;19.838;2023-11-22T08:15:48;97981.09;;;4.45;82.55
70921;BME280;58572;48.110;19.838;2023-11-22T08:18:16;97983.00;;;4.78;79.04
70921;BME280;58572;48.110;19.838;2023-11-22T08:20:44;97983.81;;;4.79;81.40
70921;BME280;58572;48.110;19.838;2023-11-22T08:23:11;97977.69;;;5.51;78.17
70921;BME280;58572;48.110;19.838;2023-11-22T08:25:40;97986.28;;;4.97;80.63
70921;BME280;58572;48.110;19.838;2023-11-22T08:28:07;97990.03;;;4.96;79.44
70921;BME280;58572;48.110;19.838;2023-11-22T08:30:34;98001.75;;;4.57;82.79
70921;BME280;58572;48.110;19.838;2023-11-22T08:33:02;98011.06;;;4.66;83.88
70921;BME280;58572;48.110;19.838;2023-11-22T08:35:29;98009.09;;;5.23;78.63
70921;BME280;58572;48.110;19.838;2023-11-22T08:37:57;98010.22;;;4.48;84.23
70921;BME280;58572;48.110;19.838;2023-11-22T08:40:24;98006.94;;;5.81;77.46
70921;BME280;58572;48.110;19.838;2023-11-22T08:42:53;97949.88;;;5.28;77.25
70921;BME280;58572;48.110;19.838;2023-11-22T08:45:20;98016.09;;;5.41;78.32
70921;BME280;58572;48.110;19.838;2023-11-22T08:47:47;98017.16;;;5.40;78.97
70921;BME280;58572;48.110;19.838;2023-11-22T08:50:17;98009.28;;;5.55;78.91
70921;BME280;58572;48.110;19.838;2023-11-22T08:52:45;98006.81;;;6.31;76.53
70921;BME280;58572;48.110;19.838;2023-11-22T08:55:12;97995.09;;;6.47;74.18
70921;BME280;58572;48.110;19.838;2023-11-22T08:57:40;98006.69;;;6.69;72.81
70921;BME280;58572;48.110;19.838;2023-11-22T09:00:09;98006.00;;;6.30;77.17
70921;BME280;58572;48.110;19.838;2023-11-22T09:02:39;98017.47;;;5.99;75.91
70921;BME280;58572;48.110;19.838;2023-11-22T09:05:07;98015.53;;;5.94;76.60
70921;BME280;58572;48.110;19.838;2023-11-22T09:07:34;98019.53;;;5.92;77.57
70921;BME280;58572;48.110;19.838;2023-11-22T09:10:05;98017.63;;;6.31;75.00
70921;BME280;58572;48.110;19.838;2023-11-22T09:12:36;98026.03;;;6.34;74.97
70921;BME280;58572;48.110;19.838;2023-11-22T09:15:06;98021.81;;;6.97;74.23
70921;BME280;58572;48.110;19.838;2023-11-22T09:17:37;98034.81;;;5.48;79.44
70921;BME280;58572;48.110;19.838;2023-11-22T09:20:09;98019.25;;;6.32;73.59
70921;BME280;58572;48.110;19.838;2023-11-22T09:22:41;98020.81;;;7.83;73.28
70921;BME280;58572;48.110;19.838;2023-11-22T09:25:11;98026.91;;;6.67;71.54
70921;BME280;58572;48.110;19.838;2023-11-22T09:27:38;98008.25;;;6.92;72.17
70921;BME280;58572;48.110;19.838;2023-11-22T09:30:07;98030.06;;;6.86;71.31
70921;BME280;58572;48.110;19.838;2023-11-22T09:32:44;98034.75;;;6.95;71.94
70921;BME280;58572;48.110;19.838;2023-11-22T09:35:13;98030.44;;;7.26;72.33
70921;BME280;58572;48.110;19.838;2023-11-22T09:37:41;98030.06;;;8.34;71.59
70921;BME280;58572;48.110;19.838;2023-11-22T09:40:11;98022.38;;;7.68;70.49
70921;BME280;58572;48.110;19.838;2023-11-22T09:42:39;98024.28;;;7.73;71.08
70921;BME280;58572;48.110;19.838;2023-11-22T09:45:08;98030.16;;;6.20;75.59
70921;BME280;58572;48.110;19.838;2023-11-22T09:47:36;98030.56;;;6.56;74.60
70921;BME280;58572;48.110;19.838;2023-11-22T09:50:07;98031.16;;;6.85;76.29
70921;BME280;58572;48.110;19.838;2023-11-22T09:52:41;98033.03;;;6.84;75.34
70921;BME280;58572;48.110;19.838;2023-11-22T09:55:09;98032.31;;;6.94;73.45
70921;BME280;58572;48.110;19.838;2023-11-22T09:57:39;98037.09;;;7.14;69.07
70921;BME280;58572;48.110;19.838;2023-11-22T10:00:09;98030.84;;;7.13;70.36
70921;BME280;58572;48.110;19.838;2023-11-22T10:02:39;98026.25;;;7.41;69.54
70921;BME280;58572;48.110;19.838;2023-11-22T10:05:09;98026.59;;;6.36;74.24
70921;BME280;58572;48.110;19.838;2023-11-22T10:07:37;98029.66;;;6.99;72.15
70921;BME280;58572;48.110;19.838;2023-11-22T10:10:05;98023.00;;;7.12;68.59
70921;BME280;58572;48.110;19.838;2023-11-22T10:12:36;98034.63;;;7.12;71.83
70921;BME280;58572;48.110;19.838;2023-11-22T10:15:18;98037.50;;;6.03;75.24
70921;BME280;58572;48.110;19.838;2023-11-22T10:17:54;98045.31;;;6.70;73.79
70921;BME280;58572;48.110;19.838;2023-11-22T10:20:25;98042.09;;;7.00;71.89
70921;BME280;58572;48.110;19.838;2023-11-22T10:23:02;98040.75;;;7.02;68.54
70921;BME280;58572;48.110;19.838;2023-11-22T10:25:29;98043.75;;;6.74;71.01
70921;BME280;58572;48.110;19.838;2023-11-22T10:27:58;98044.91;;;6.83;69.92
70921;BME280;58572;48.110;19.838;2023-11-22T10:30:24;98044.75;;;7.59;69.63
70921;BME280;58572;48.110;19.838;2023-11-22T10:32:54;98055.97;;;7.09;70.11
70921;BME280;58572;48.110;19.838;2023-11-22T10:35:21;98055.34;;;7.65;69.10
70921;BME280;58572;48.110;19.838;2023-11-22T10:37:50;98067.22;;;7.59;69.66
70921;BME280;58572;48.110;19.838;2023-11-22T10:40:18;98079.16;;;6.12;73.53
70921;BME280;58572;48.110;19.838;2023-11-22T10:42:48;98071.25;;;7.25;71.28
70921;BME280;58572;48.110;19.838;2023-11-22T10:45:18;98068.97;;;7.12;70.08
70921;BME280;58572;48.110;19.838;2023-11-22T10:47:47;98066.38;;;7.96;67.86
70921;BME280;58572;48.110;19.838;2023-11-22T10:50:16;98079.72;;;7.65;69.13
70921;BME280;58572;48.110;19.838;2023-11-22T10:52:45;98052.84;;;7.54;66.83
70921;BME280;58572;48.110;19.838;2023-11-22T10:55:17;98089.31;;;7.83;66.80
70921;BME280;58572;48.110;19.838;2023-11-22T10:57:45;98106.09;;;6.94;67.96
70921;BME280;58572;48.110;19.838;2023-11-22T11:00:16;98102.56;;;7.48;70.14
70921;BME280;58572;48.110;19.838;2023-11-22T11:02:53;98104.38;;;7.37;69.41
70921;BME280;58572;48.110;19.838;2023-11-22T11:05:22;98118.59;;;7.00;70.58
70921;BME280;58572;48.110;19.838;2023-11-22T11:08:00;98108.19;;;6.87;70.51
70921;BME280;58572;48.110;19.838;2023-11-22T11:10:31;98108.19;;;7.14;68.55
70921;BME280;58572;48.110;19.838;2023-11-22T11:12:59;98106.50;;;7.35;68.66
70921;BME280;58572;48.110;19.838;2023-11-22T11:15:27;98109.34;;;7.23;68.94
70921;BME280;58572;48.110;19.838;2023-11-22T11:17:56;98105.22;;;7.43;68.74
70921;BME280;58572;48.110;19.838;2023-11-22T11:20:23;98106.28;;;7.74;68.78
70921;BME280;58572;48.110;19.838;2023-11-22T11:22:50;98105.75;;;7.77;67.40
70921;BME280;58572;48.110;19.838;2023-11-22T11:25:21;98107.03;;;7.64;67.17
70921;BME280;58572;48.110;19.838;2023-11-22T11:28:02;98117.22;;;7.89;68.56
70921;BME280;58572;48.110;19.838;2023-11-22T11:30:45;98129.53;;;6.89;70.74
70921;BME280;58572;48.110;19.838;2023-11-22T11:33:15;98143.06;;;7.69;68.48
70921;BME280;58572;48.110;19.838;2023-11-22T11:35:45;98137.88;;;8.00;68.10
70921;BME280;58572;48.110;19.838;2023-11-22T11:38:13;98138.31;;;7.87;67.58
70921;BME280;58572;48.110;19.838;2023-11-22T11:40:41;98143.19;;;6.77;71.75
70921;BME280;58572;48.110;19.838;2023-11-22T11:43:12;98136.78;;;7.32;71.25
70921;BME280;58572;48.110;19.838;2023-11-22T11:45:39;98145.22;;;7.14;71.49
70921;BME280;58572;48.110;19.838;2023-11-22T11:48:12;98153.41;;;6.31;76.52
70921;BME280;58572;48.110;19.838;2023-11-22T11:50:39;98154.44;;;7.40;69.45
70921;BME280;58572;48.110;19.838;2023-11-22T11:53:07;98152.81;;;7.17;71.62
70921;BME280;58572;48.110;19.838;2023-11-22T11:55:34;98146.53;;;6.84;72.98
70921;BME280;58572;48.110;19.838;2023-11-22T11:58:04;98150.16;;;6.73;72.87
70921;BME280;58572;48.110;19.838;2023-11-22T12:00:36;98149.09;;;7.23;70.35
70921;BME280;58572;48.110;19.838;2023-11-22T12:03:06;98156.81;;;6.44;73.45
70921;BME280;58572;48.110;19.838;2023-11-22T12:05:35;98161.41;;;6.87;72.80
70921;BME280;58572;48.110;19.838;2023-11-22T12:08:03;98159.41;;;7.53;69.81
70921;BME280;58572;48.110;19.838;2023-11-22T12:10:30;98165.63;;;7.26;70.80
70921;BME280;58572;48.110;19.838;2023-11-22T12:12:57;98166.34;;;7.71;69.37
70921;BME280;58572;48.110;19.838;2023-11-22T12:15:24;98163.66;;;7.76;68.28
70921;BME280;58572;48.110;19.838;2023-11-22T12:17:53;98160.13;;;7.43;68.76
70921;BME280;58572;48.110;19.838;2023-11-22T12:20:23;98155.22;;;7.67;68.60
70921;BME280;58572;48.110;19.838;2023-11-22T12:22:51;98159.28;;;7.16;71.88
70921;BME280;58572;48.110;19.838;2023-11-22T12:25:19;98166.31;;;6.68;75.25
70921;BME280;58572;48.110;19.838;2023-11-22T12:27:46;98150.06;;;6.63;74.49
70921;BME280;58572;48.110;19.838;2023-11-22T12:30:34;98178.22;;;7.16;73.94
70921;BME280;58572;48.110;19.838;2023-11-22T12:33:04;98179.00;;;6.67;75.43
70921;BME280;58572;48.110;19.838;2023-11-22T12:35:31;98176.69;;;7.79;70.48
70921;BME280;58572;48.110;19.838;2023-11-22T12:38:00;98173.25;;;7.56;69.98
70921;BME280;58572;48.110;19.838;2023-11-22T12:40:28;98172.25;;;7.99;68.26
70921;BME280;58572;48.110;19.838;2023-11-22T12:42:59;98179.03;;;8.02;68.22
70921;BME280;58572;48.110;19.838;2023-11-22T12:45:28;98184.22;;;7.45;71.21
70921;BME280;58572;48.110;19.838;2023-11-22T12:47:56;98179.06;;;7.43;74.24
70921;BME280;58572;48.110;19.838;2023-11-22T12:50:32;98164.91;;;7.63;72.01
70921;BME280;58572;48.110;19.838;2023-11-22T12:53:08;98159.56;;;8.05;70.39
70921;BME280;58572;48.110;19.838;2023-11-22T12:55:36;98170.91;;;8.34;65.92
70921;BME280;58572;48.110;19.838;2023-11-22T12:58:03;98171.47;;;8.04;68.88
70921;BME280;58572;48.110;19.838;2023-11-22T13:00:31;98164.03;;;8.63;66.63
70921;BME280;58572;48.110;19.838;2023-11-22T13:02:58;98167.31;;;8.71;67.24
70921;BME280;58572;48.110;19.838;2023-11-22T13:05:25;98166.22;;;8.72;68.36